createdAt,value
2019-01-31T00:02:07.096Z,74.40
2019-01-31T00:04:32.553Z,76.80
2019-01-31T00:06:47.516Z,74.20
2019-01-31T00:09:46.457Z,78.60
2019-01-31T00:12:26.748Z,78.60
2019-01-31T00:15:09.280Z,82.40
2019-01-31T00:17:27.819Z,84.20
2019-01-31T00:19:38.888Z,83.00
2019-01-31T00:22:17.383Z,83.10
2019-01-31T00:24:33.300Z,80.00
2019-01-31T00:27:07.112Z,77.90
2019-01-31T00:29:46.589Z,80.70
2019-01-31T00:32:24.007Z,76.10
2019-01-31T00:34:58.861Z,78.60
2019-01-31T00:37:44.659Z,78.60
2019-01-31T00:40:04.422Z,76.20
2019-01-31T00:42:45.807Z,77.30
2019-01-31T00:44:58.521Z,77.90
2019-01-31T00:47:12.069Z,80.30
2019-01-31T00:49:44.217Z,81.10
2019-01-31T00:52:09.195Z,82.40
2019-01-31T00:54:20.390Z,87.00
2019-01-31T00:56:43.014Z,90.00
2019-01-31T00:59:11.517Z,89.00
2019-01-31T01:02:10.274Z,90.20
2019-01-31T01:04:44.317Z,91.50
2019-01-31T01:07:17.792Z,93.50
2019-01-31T01:09:30.932Z,91.10
2019-01-31T01:11:52.257Z,88.80
2019-01-31T01:14:16.734Z,81.60
2019-01-31T01:16:27.916Z,83.20
2019-01-31T01:18:53.664Z,86.80
2019-01-31T01:21:03.659Z,84.60
2019-01-31T01:23:38.149Z,89.10
2019-01-31T01:26:07.134Z,90.70
2019-01-31T01:29:12.812Z,90.50
2019-01-31T01:31:41.624Z,92.00
2019-01-31T01:33:54.241Z,92.80
2019-01-31T01:36:33.204Z,92.40
2019-01-31T01:39:19.197Z,93.10
2019-01-31T01:41:47.736Z,94.40
2019-01-31T01:44:07.921Z,90.80
2019-01-31T01:46:33.320Z,85.50
2019-01-31T01:48:43.784Z,84.60
2019-01-31T01:51:16.931Z,85.00
2019-01-31T01:54:07.481Z,87.10
2019-01-31T01:56:34.616Z,86.60
2019-01-31T01:59:00.728Z,87.80
2019-01-31T02:01:26.521Z,89.00
2019-01-31T02:04:11.560Z,89.10
2019-01-31T02:06:54.145Z,89.70
2019-01-31T02:09:29.963Z,91.10
2019-01-31T02:12:03.620Z,90.70
2019-01-31T02:14:31.477Z,90.60
2019-01-31T02:17:18.332Z,90.40
2019-01-31T02:19:56.445Z,89.60
2019-01-31T02:22:36.744Z,90.10
2019-01-31T02:24:43.811Z,90.40
2019-01-31T02:27:34.397Z,90.20
2019-01-31T02:30:19.767Z,91.40
2019-01-31T02:32:44.087Z,91.50
2019-01-31T02:34:54.845Z,93.40
2019-01-31T02:37:21.688Z,94.50
2019-01-31T02:39:42.774Z,94.90
2019-01-31T02:42:07.470Z,95.30
2019-01-31T02:44:29.820Z,94.60
2019-01-31T02:46:45.901Z,95.10
2019-01-31T02:49:08.767Z,95.40
2019-01-31T02:51:42.307Z,95.90
2019-01-31T02:54:05.217Z,96.10
2019-01-31T02:56:32.665Z,96.20
2019-01-31T02:59:28.507Z,96.90
2019-01-31T03:01:39.662Z,97.30
2019-01-31T03:04:12.955Z,98.10
2019-01-31T03:07:09.001Z,97.30
2019-01-31T03:09:21.394Z,97.10
2019-01-31T03:11:55.600Z,97.30
2019-01-31T03:14:10.311Z,96.80
2019-01-31T03:16:36.372Z,96.30
2019-01-31T03:18:55.159Z,95.90
2019-01-31T03:21:26.382Z,93.50
2019-01-31T03:23:39.197Z,92.40
2019-01-31T03:26:09.537Z,92.20
2019-01-31T03:28:34.289Z,91.50
2019-01-31T03:30:59.753Z,91.10
2019-01-31T03:33:15.570Z,91.80
2019-01-31T03:35:46.338Z,92.40
2019-01-31T03:38:00.581Z,92.70
2019-01-31T03:40:36.754Z,93.90
2019-01-31T03:43:07.482Z,94.50
2019-01-31T03:45:37.606Z,94.50
2019-01-31T03:47:56.453Z,93.10
2019-01-31T03:50:26.608Z,93.80
2019-01-31T03:53:09.449Z,93.90
2019-01-31T03:55:39.036Z,93.80
2019-01-31T03:58:13.277Z,93.80
2019-01-31T04:01:11.190Z,94.00
2019-01-31T04:03:32.544Z,94.60
2019-01-31T04:05:40.703Z,95.70
2019-01-31T04:07:42.361Z,95.70
2019-01-31T04:09:44.021Z,95.50
2019-01-31T04:11:45.704Z,95.80
2019-01-31T04:13:47.352Z,94.70
2019-01-31T04:15:49.025Z,95.20
2019-01-31T04:17:50.685Z,95.70
2019-01-31T04:19:52.333Z,96.20
2019-01-31T04:21:53.996Z,96.40
2019-01-31T04:23:55.663Z,95.80
2019-01-31T04:25:57.311Z,95.90
2019-01-31T04:27:58.962Z,96.20
2019-01-31T04:30:00.909Z,96.60
2019-01-31T04:32:02.574Z,97.10
2019-01-31T04:34:04.546Z,96.70
2019-01-31T04:36:06.195Z,97.30
2019-01-31T04:38:07.861Z,97.20
2019-01-31T04:40:09.545Z,97.60
2019-01-31T04:42:11.199Z,97.70
2019-01-31T04:44:13.177Z,97.70
2019-01-31T04:46:14.861Z,98.20
2019-01-31T04:48:16.510Z,98.20
2019-01-31T04:50:18.167Z,98.50
2019-01-31T04:52:20.097Z,98.10
2019-01-31T04:54:21.762Z,98.20
2019-01-31T04:56:23.420Z,98.20
2019-01-31T04:58:25.665Z,97.80
2019-01-31T05:00:27.315Z,97.70
2019-01-31T05:02:28.993Z,97.70
2019-01-31T05:04:30.929Z,96.90
2019-01-31T05:06:32.599Z,96.70
2019-01-31T05:08:34.246Z,96.30
2019-01-31T05:10:42.798Z,95.80
2019-01-31T05:12:39.505Z,96.00
2019-01-31T05:14:41.164Z,95.80
2019-01-31T05:16:42.835Z,95.70
2019-01-31T05:18:44.489Z,95.80
2019-01-31T05:20:46.149Z,95.20
2019-01-31T05:22:47.808Z,95.70
2019-01-31T05:24:49.451Z,96.00
2019-01-31T05:26:51.122Z,96.20
2019-01-31T05:28:52.785Z,96.80
2019-01-31T05:30:54.447Z,97.00
2019-01-31T05:32:58.938Z,97.50
2019-01-31T05:34:59.669Z,98.60
2019-01-31T05:37:01.337Z,98.10
2019-01-31T05:39:06.288Z,98.30
2019-01-31T05:41:08.170Z,98.80
2019-01-31T05:43:09.908Z,99.20
2019-01-31T05:45:12.892Z,99.60
2019-01-31T05:47:14.544Z,99.80
2019-01-31T05:49:16.196Z,99.90
2019-01-31T05:51:17.858Z,99.90
2019-01-31T05:53:19.524Z,99.90
2019-01-31T05:55:21.181Z,99.90
2019-01-31T05:57:22.845Z,99.90
2019-01-31T05:59:24.502Z,99.90
2019-01-31T06:01:26.144Z,99.90
2019-01-31T06:03:27.813Z,99.90
2019-01-31T06:05:29.573Z,99.90
2019-01-31T06:07:31.245Z,99.90
2019-01-31T06:09:33.405Z,99.90
2019-01-31T06:11:35.385Z,99.90
2019-01-31T06:13:37.053Z,99.90
2019-01-31T06:15:38.722Z,99.90
2019-01-31T06:17:40.376Z,99.90
2019-01-31T06:19:42.014Z,99.90
2019-01-31T06:21:43.669Z,99.90
2019-01-31T06:23:45.340Z,99.90
2019-01-31T06:25:47.234Z,99.90
2019-01-31T06:27:48.898Z,99.90
2019-01-31T06:29:50.558Z,99.90
2019-01-31T06:31:52.200Z,99.90
2019-01-31T06:33:53.866Z,99.90
2019-01-31T06:35:55.525Z,99.90
2019-01-31T06:37:57.171Z,99.90
2019-01-31T06:39:58.830Z,99.90
2019-01-31T06:42:00.484Z,99.90
2019-01-31T06:44:02.133Z,99.90
2019-01-31T06:46:03.780Z,99.90
2019-01-31T06:48:05.565Z,99.90
2019-01-31T06:50:07.565Z,99.90
2019-01-31T06:52:09.224Z,99.90
2019-01-31T06:54:10.904Z,99.90
2019-01-31T06:56:12.565Z,99.90
2019-01-31T06:58:14.220Z,99.90
2019-01-31T07:00:17.990Z,99.90
2019-01-31T07:02:19.635Z,99.90
2019-01-31T07:04:21.305Z,99.90
2019-01-31T07:06:22.952Z,99.90
2019-01-31T07:08:24.614Z,99.90
2019-01-31T07:10:26.272Z,99.90
2019-01-31T07:12:27.929Z,99.90
2019-01-31T07:14:29.581Z,99.90
2019-01-31T07:16:31.232Z,99.90
2019-01-31T07:18:32.897Z,99.90
2019-01-31T07:20:34.553Z,99.90
2019-01-31T07:22:36.206Z,99.90
2019-01-31T07:24:38.208Z,99.90
2019-01-31T07:26:41.546Z,99.90
2019-01-31T07:28:43.428Z,99.90
2019-01-31T07:30:45.080Z,99.90
2019-01-31T07:32:46.721Z,99.90
2019-01-31T07:34:48.385Z,97.80
2019-01-31T07:36:50.365Z,97.80
2019-01-31T07:38:52.024Z,96.90
2019-01-31T07:40:53.681Z,95.30
2019-01-31T07:42:55.937Z,91.30
2019-01-31T07:44:57.896Z,86.20
2019-01-31T07:46:59.549Z,74.40
2019-01-31T07:49:01.210Z,65.80
2019-01-31T07:51:02.869Z,58.60
2019-01-31T07:53:04.528Z,52.80
2019-01-31T07:55:07.316Z,49.70
2019-01-31T07:57:08.971Z,50.00
2019-01-31T07:59:10.641Z,45.00
2019-01-31T08:01:12.305Z,43.50
2019-01-31T08:03:13.952Z,39.20
2019-01-31T08:05:17.095Z,40.90
2019-01-31T08:07:19.023Z,34.70
2019-01-31T08:09:20.693Z,34.80
2019-01-31T08:11:22.642Z,32.90
2019-01-31T08:13:24.292Z,29.70
2019-01-31T08:15:25.952Z,29.10
2019-01-31T08:17:27.603Z,28.60
2019-01-31T08:19:29.260Z,29.20
2019-01-31T08:21:30.910Z,34.10
2019-01-31T08:23:32.561Z,34.40
2019-01-31T08:25:34.224Z,40.00
2019-01-31T08:27:35.872Z,45.30
2019-01-31T08:29:37.522Z,48.50
2019-01-31T08:31:39.170Z,52.30
2019-01-31T08:33:40.817Z,55.80
2019-01-31T08:35:42.474Z,58.70
2019-01-31T08:37:44.392Z,59.60
2019-01-31T08:39:46.062Z,61.20
2019-01-31T08:41:47.708Z,61.70
2019-01-31T08:43:49.362Z,63.10
2019-01-31T08:45:51.330Z,60.30
2019-01-31T08:47:52.986Z,61.60
2019-01-31T08:49:54.657Z,63.80
2019-01-31T08:51:56.592Z,60.60
2019-01-31T08:53:58.553Z,57.80
2019-01-31T08:56:00.235Z,57.10
2019-01-31T08:58:01.885Z,57.20
2019-01-31T09:00:05.264Z,58.50
2019-01-31T09:02:06.992Z,59.10
2019-01-31T09:04:08.646Z,56.50
2019-01-31T09:06:10.315Z,54.40
2019-01-31T09:08:12.370Z,58.20
2019-01-31T09:10:16.505Z,54.50
2019-01-31T09:12:18.153Z,56.20
2019-01-31T09:14:19.809Z,53.30
2019-01-31T09:16:21.472Z,49.90
2019-01-31T09:18:23.309Z,50.00
2019-01-31T09:20:34.288Z,48.80
2019-01-31T09:22:56.901Z,48.30
2019-01-31T09:25:31.730Z,41.00
2019-01-31T09:27:54.181Z,33.40
2019-01-31T09:30:25.327Z,25.00
2019-01-31T09:32:43.537Z,21.20
2019-01-31T09:34:59.956Z,16.10
2019-01-31T09:37:28.929Z,14.80
2019-01-31T09:39:52.325Z,11.80
2019-01-31T09:42:10.777Z,10.40
2019-01-31T09:44:43.575Z,8.70
2019-01-31T09:47:14.501Z,10.00
2019-01-31T09:49:53.106Z,8.60
2019-01-31T09:52:32.877Z,8.20
2019-01-31T09:55:07.885Z,5.80
2019-01-31T09:57:43.523Z,5.80
2019-01-31T10:00:13.815Z,3.70
2019-01-31T10:03:12.241Z,1.00
2019-01-31T10:05:51.182Z,1.50
2019-01-31T10:08:40.935Z,1.00
2019-01-31T10:11:19.903Z,1.00
2019-01-31T10:13:56.668Z,1.00
2019-01-31T10:16:32.384Z,1.00
2019-01-31T10:19:01.974Z,1.00
2019-01-31T10:21:49.353Z,1.00
2019-01-31T10:24:42.218Z,1.00
2019-01-31T10:27:10.149Z,1.00
2019-01-31T10:29:53.769Z,1.00
2019-01-31T10:32:09.355Z,1.00
2019-01-31T10:34:22.271Z,1.00
2019-01-31T10:36:45.979Z,1.00
2019-01-31T10:39:24.724Z,1.00
2019-01-31T10:42:14.461Z,4.10
2019-01-31T10:44:36.165Z,6.40
2019-01-31T10:47:17.385Z,7.30
2019-01-31T10:50:04.221Z,4.30
2019-01-31T10:52:28.297Z,1.80
2019-01-31T10:54:44.210Z,1.00
2019-01-31T10:57:16.146Z,1.00
2019-01-31T10:59:46.464Z,1.00
2019-01-31T11:02:19.481Z,1.00
2019-01-31T11:04:51.474Z,1.00
2019-01-31T11:07:53.596Z,1.00
2019-01-31T11:10:43.330Z,1.00
2019-01-31T11:13:04.106Z,1.00
2019-01-31T11:15:23.909Z,1.00
2019-01-31T11:17:47.761Z,1.00
2019-01-31T11:20:27.848Z,1.00
2019-01-31T11:23:00.793Z,1.00
2019-01-31T11:25:49.996Z,1.00
2019-01-31T11:28:29.892Z,1.00
2019-01-31T11:30:53.393Z,1.00
2019-01-31T11:33:21.030Z,1.00
2019-01-31T11:36:17.020Z,1.00
2019-01-31T11:38:32.433Z,1.00
2019-01-31T11:40:43.086Z,1.00
2019-01-31T11:43:28.846Z,1.00
2019-01-31T11:46:03.276Z,1.00
2019-01-31T11:48:50.381Z,1.00
2019-01-31T11:51:28.845Z,1.00
2019-01-31T11:53:49.425Z,1.00
2019-01-31T11:56:17.953Z,1.00
2019-01-31T11:58:58.572Z,1.00
2019-01-31T12:01:00.203Z,1.00
2019-01-31T12:03:02.148Z,1.00
2019-01-31T12:05:04.183Z,1.00
2019-01-31T12:07:05.852Z,1.00
2019-01-31T12:09:12.864Z,1.00
2019-01-31T12:11:14.657Z,1.00
2019-01-31T12:13:23.331Z,1.00
2019-01-31T12:15:20.230Z,1.00
2019-01-31T12:17:21.877Z,1.00
2019-01-31T12:19:23.976Z,1.00
2019-01-31T12:21:25.612Z,1.00
2019-01-31T12:23:27.263Z,1.00
2019-01-31T12:25:28.921Z,1.00
2019-01-31T12:27:30.773Z,1.00
2019-01-31T12:29:32.433Z,1.00
2019-01-31T12:31:34.181Z,1.00
2019-01-31T12:33:35.819Z,1.00
2019-01-31T12:35:37.484Z,1.00
2019-01-31T12:37:39.123Z,1.00
2019-01-31T12:39:40.772Z,1.00
2019-01-31T12:41:42.426Z,1.00
2019-01-31T12:43:44.075Z,1.00
2019-01-31T12:45:45.736Z,1.00
2019-01-31T12:47:47.700Z,1.00
2019-01-31T12:49:49.353Z,1.00
2019-01-31T12:51:51.105Z,1.00
2019-01-31T12:53:52.753Z,1.00
2019-01-31T12:55:54.413Z,1.00
2019-01-31T12:57:56.062Z,1.00
2019-01-31T12:59:58.022Z,1.00
2019-01-31T13:01:59.665Z,1.00
2019-01-31T13:04:01.313Z,1.00
2019-01-31T13:06:02.981Z,2.00
2019-01-31T13:08:04.944Z,1.10
2019-01-31T13:10:06.826Z,1.00
2019-01-31T13:12:08.986Z,2.50
2019-01-31T13:14:10.633Z,1.70
2019-01-31T13:16:12.290Z,1.60
2019-01-31T13:18:14.224Z,1.60
2019-01-31T13:20:17.745Z,1.00
2019-01-31T13:22:19.394Z,1.00
2019-01-31T13:24:21.069Z,1.00
2019-01-31T13:26:22.723Z,1.00
2019-01-31T13:28:24.634Z,1.00
2019-01-31T13:30:26.287Z,1.00
2019-01-31T13:32:27.940Z,1.00
2019-01-31T13:34:29.585Z,1.00
2019-01-31T13:36:31.235Z,1.00
2019-01-31T13:38:32.885Z,1.00
2019-01-31T13:40:34.549Z,1.00
2019-01-31T13:42:36.296Z,1.00
2019-01-31T13:44:37.942Z,1.00
2019-01-31T13:46:39.591Z,1.00
2019-01-31T13:48:41.241Z,1.00
2019-01-31T13:50:42.908Z,1.00
2019-01-31T13:52:44.556Z,1.00
2019-01-31T13:54:46.217Z,1.00
2019-01-31T13:56:47.878Z,1.00
2019-01-31T13:58:49.530Z,1.00
2019-01-31T14:00:51.180Z,1.00
2019-01-31T14:02:52.849Z,1.00
2019-01-31T14:04:54.497Z,1.00
2019-01-31T14:06:56.139Z,1.00
2019-01-31T14:08:57.784Z,1.00
2019-01-31T14:10:59.729Z,1.00
2019-01-31T14:13:01.377Z,1.00
2019-01-31T14:15:04.289Z,1.00
2019-01-31T14:17:05.949Z,1.00
2019-01-31T14:19:07.588Z,1.00
2019-01-31T14:21:09.250Z,1.00
2019-01-31T14:23:10.892Z,1.00
2019-01-31T14:25:12.541Z,1.00
2019-01-31T14:27:14.197Z,1.00
2019-01-31T14:29:15.836Z,1.00
2019-01-31T14:31:17.786Z,1.00
2019-01-31T14:33:24.544Z,1.00
2019-01-31T14:35:26.768Z,1.00
2019-01-31T14:37:29.725Z,1.00
2019-01-31T14:39:31.470Z,1.20
2019-01-31T14:41:33.132Z,2.00
2019-01-31T14:43:34.777Z,1.00
2019-01-31T14:45:36.417Z,1.00
2019-01-31T14:47:38.073Z,1.00
2019-01-31T14:49:39.725Z,1.00
2019-01-31T14:51:41.672Z,1.00
2019-01-31T14:53:43.303Z,1.00
2019-01-31T14:55:44.969Z,1.00
2019-01-31T14:57:46.609Z,1.00
2019-01-31T14:59:48.253Z,1.00
2019-01-31T15:01:49.902Z,1.00
2019-01-31T15:03:51.824Z,1.00
2019-01-31T15:05:53.941Z,1.00
2019-01-31T15:07:55.603Z,1.10
2019-01-31T15:09:57.557Z,2.10
2019-01-31T15:11:59.232Z,2.50
2019-01-31T15:14:00.880Z,5.70
2019-01-31T15:16:02.524Z,6.50
2019-01-31T15:18:05.829Z,7.10
2019-01-31T15:20:17.508Z,7.70
2019-01-31T15:22:19.159Z,7.80
2019-01-31T15:24:20.826Z,9.00
2019-01-31T15:26:22.473Z,8.90
2019-01-31T15:28:24.402Z,9.60
2019-01-31T15:30:30.482Z,10.20
2019-01-31T15:32:33.000Z,11.60
2019-01-31T15:34:34.913Z,11.00
2019-01-31T15:36:36.565Z,10.80
2019-01-31T15:38:38.229Z,10.80
2019-01-31T15:40:42.013Z,11.60
2019-01-31T15:42:43.672Z,11.60
2019-01-31T15:44:45.320Z,11.20
2019-01-31T15:46:46.965Z,11.40
2019-01-31T15:48:48.618Z,12.00
2019-01-31T15:50:50.260Z,12.30
2019-01-31T15:52:51.936Z,12.70
2019-01-31T15:54:54.172Z,13.80
2019-01-31T15:56:55.821Z,12.90
2019-01-31T15:58:57.481Z,12.70
2019-01-31T16:00:59.141Z,13.90
2019-01-31T16:03:01.090Z,14.30
2019-01-31T16:05:03.353Z,13.80
2019-01-31T16:07:05.106Z,14.40
2019-01-31T16:09:07.397Z,14.60
2019-01-31T16:11:09.052Z,14.20
2019-01-31T16:13:10.731Z,15.00
2019-01-31T16:15:12.709Z,15.20
2019-01-31T16:17:14.449Z,14.80
2019-01-31T16:19:16.119Z,15.10
2019-01-31T16:21:17.757Z,15.10
2019-01-31T16:23:19.712Z,15.10
2019-01-31T16:25:21.372Z,16.00
2019-01-31T16:27:23.132Z,17.00
2019-01-31T16:29:24.785Z,16.40
2019-01-31T16:31:26.441Z,16.70
2019-01-31T16:33:28.113Z,17.00
2019-01-31T16:35:29.978Z,17.40
2019-01-31T16:37:31.633Z,17.80
2019-01-31T16:39:33.280Z,18.60
2019-01-31T16:41:34.958Z,19.10
2019-01-31T16:43:36.883Z,19.20
2019-01-31T16:45:38.527Z,19.30
2019-01-31T16:47:40.177Z,19.10
2019-01-31T16:49:41.868Z,19.70
2019-01-31T16:51:45.417Z,20.20
2019-01-31T16:53:47.094Z,18.00
2019-01-31T16:55:48.737Z,19.20
2019-01-31T16:57:50.394Z,19.80
2019-01-31T16:59:52.057Z,19.40
2019-01-31T17:01:53.699Z,19.80
2019-01-31T17:03:55.357Z,19.90
2019-01-31T17:05:57.333Z,19.90
2019-01-31T17:07:59.018Z,19.60
2019-01-31T17:10:00.676Z,20.00
2019-01-31T17:12:02.664Z,20.20
2019-01-31T17:14:04.435Z,20.10
2019-01-31T17:16:06.083Z,19.30
2019-01-31T17:18:07.732Z,20.60
2019-01-31T17:20:13.314Z,20.80
2019-01-31T17:22:15.057Z,21.10
2019-01-31T17:24:16.981Z,22.20
2019-01-31T17:26:18.636Z,22.40
2019-01-31T17:28:20.279Z,23.20
2019-01-31T17:30:22.911Z,22.80
2019-01-31T17:32:25.121Z,23.30
2019-01-31T17:34:27.559Z,23.90
2019-01-31T17:36:29.537Z,24.20
2019-01-31T17:38:33.141Z,24.40
2019-01-31T17:40:36.995Z,24.70
2019-01-31T17:42:38.933Z,25.00
2019-01-31T17:44:40.591Z,25.40
2019-01-31T17:46:42.240Z,25.10
2019-01-31T17:48:43.902Z,26.10
2019-01-31T17:50:45.885Z,26.20
2019-01-31T17:52:47.651Z,26.10
2019-01-31T17:54:49.498Z,26.40
2019-01-31T17:56:51.187Z,27.00
2019-01-31T17:58:52.849Z,26.20
2019-01-31T18:00:56.749Z,26.90
2019-01-31T18:02:58.392Z,27.90
2019-01-31T18:05:00.103Z,26.90
2019-01-31T18:07:02.112Z,27.50
2019-01-31T18:09:07.477Z,27.80
2019-01-31T18:11:09.136Z,28.80
2019-01-31T18:13:10.796Z,29.20
2019-01-31T18:15:12.483Z,29.20
2019-01-31T18:17:14.153Z,28.50
2019-01-31T18:19:15.822Z,28.50
2019-01-31T18:21:17.476Z,27.40
2019-01-31T18:23:19.128Z,28.40
2019-01-31T18:25:20.810Z,28.80
2019-01-31T18:27:22.820Z,28.50
2019-01-31T18:29:24.685Z,27.60
2019-01-31T18:31:26.641Z,27.70
2019-01-31T18:33:28.298Z,28.60
2019-01-31T18:35:29.961Z,28.50
2019-01-31T18:37:31.617Z,29.70
2019-01-31T18:39:33.273Z,29.00
2019-01-31T18:41:34.928Z,29.80
2019-01-31T18:43:36.580Z,28.70
2019-01-31T18:45:38.509Z,28.90
2019-01-31T18:47:40.176Z,28.80
2019-01-31T18:49:42.073Z,28.50
2019-01-31T18:51:44.078Z,29.10
2019-01-31T18:53:45.739Z,28.90
2019-01-31T18:55:47.399Z,29.10
2019-01-31T18:57:49.097Z,28.20
2019-01-31T18:59:50.980Z,29.90
2019-01-31T19:01:52.945Z,28.40
2019-01-31T19:03:54.596Z,29.80
2019-01-31T19:05:56.561Z,30.10
2019-01-31T19:07:58.516Z,29.40
2019-01-31T19:10:00.323Z,28.80
2019-01-31T19:12:02.137Z,29.60
2019-01-31T19:14:03.800Z,30.00
2019-01-31T19:16:05.869Z,29.60
2019-01-31T19:18:07.947Z,30.30
2019-01-31T19:20:14.547Z,29.80
2019-01-31T19:22:16.533Z,29.70
2019-01-31T19:24:18.194Z,30.40
2019-01-31T19:26:19.852Z,32.20
2019-01-31T19:28:22.109Z,32.20
2019-01-31T19:30:42.806Z,32.30
2019-01-31T19:32:44.457Z,33.20
2019-01-31T19:34:46.104Z,33.00
2019-01-31T19:36:47.765Z,33.20
2019-01-31T19:38:49.421Z,34.40
2019-01-31T19:40:51.081Z,35.10
2019-01-31T19:42:53.032Z,33.80
2019-01-31T19:44:54.676Z,33.60
2019-01-31T19:46:56.341Z,34.70
2019-01-31T19:48:57.996Z,34.10
2019-01-31T19:50:59.661Z,34.60
2019-01-31T19:53:01.921Z,33.80
2019-01-31T19:55:03.601Z,33.70
2019-01-31T19:57:05.287Z,35.10
2019-01-31T19:59:07.013Z,34.20
2019-01-31T20:01:09.003Z,35.40
2019-01-31T20:03:10.651Z,35.40
2019-01-31T20:05:12.539Z,35.90
2019-01-31T20:07:14.201Z,35.60
2019-01-31T20:09:21.033Z,36.00
2019-01-31T20:11:23.000Z,36.10
2019-01-31T20:13:24.643Z,36.20
2019-01-31T20:15:26.336Z,37.00
2019-01-31T20:17:28.262Z,36.90
2019-01-31T20:19:30.216Z,38.10
2019-01-31T20:21:31.925Z,37.90
2019-01-31T20:23:33.585Z,38.70
2019-01-31T20:25:35.344Z,39.40
2019-01-31T20:27:37.017Z,39.50
2019-01-31T20:29:38.673Z,40.40
2019-01-31T20:31:40.362Z,39.60
2019-01-31T20:33:42.017Z,40.50
2019-01-31T20:35:43.671Z,40.10
2019-01-31T20:37:45.345Z,41.40
2019-01-31T20:39:47.249Z,41.40
2019-01-31T20:41:54.249Z,42.40
2019-01-31T20:43:52.486Z,42.30
2019-01-31T20:45:54.144Z,42.40
2019-01-31T20:47:55.821Z,42.80
2019-01-31T20:49:57.482Z,43.00
2019-01-31T20:51:59.139Z,42.70
2019-01-31T20:54:00.805Z,43.10
2019-01-31T20:56:02.473Z,43.10
2019-01-31T20:58:04.445Z,44.40
2019-01-31T21:00:13.636Z,42.40
2019-01-31T21:02:15.317Z,42.40
2019-01-31T21:04:16.969Z,42.90
2019-01-31T21:06:18.620Z,43.40
2019-01-31T21:08:20.301Z,42.50
2019-01-31T21:10:21.963Z,42.60
2019-01-31T21:12:23.625Z,42.40
2019-01-31T21:14:25.301Z,42.60
2019-01-31T21:16:26.960Z,41.50
2019-01-31T21:18:28.874Z,40.80
2019-01-31T21:20:30.523Z,40.70
2019-01-31T21:22:32.300Z,40.90
2019-01-31T21:24:34.268Z,40.50
2019-01-31T21:26:35.930Z,40.90
2019-01-31T21:28:37.597Z,40.80
2019-01-31T21:30:40.234Z,39.70
2019-01-31T21:32:41.889Z,37.90
2019-01-31T21:34:43.815Z,39.80
2019-01-31T21:36:45.785Z,41.20
2019-01-31T21:38:47.745Z,40.70
2019-01-31T21:40:49.409Z,40.20
2019-01-31T21:42:51.083Z,39.90
2019-01-31T21:44:52.738Z,40.60
2019-01-31T21:47:02.837Z,40.70
2019-01-31T21:48:58.234Z,41.60
2019-01-31T21:50:59.872Z,40.90
2019-01-31T21:53:01.533Z,42.60
2019-01-31T21:55:04.054Z,42.60
2019-01-31T21:57:05.708Z,42.60
2019-01-31T21:59:08.942Z,43.90
2019-01-31T22:01:10.740Z,44.30
2019-01-31T22:03:12.395Z,44.30
2019-01-31T22:05:14.348Z,42.40
2019-01-31T22:07:16.010Z,44.70
2019-01-31T22:09:18.003Z,44.30
2019-01-31T22:11:19.676Z,45.30
2019-01-31T22:13:21.613Z,44.50
2019-01-31T22:15:25.180Z,45.60
2019-01-31T22:17:26.828Z,45.70
2019-01-31T22:19:28.724Z,46.00
2019-01-31T22:21:30.390Z,46.00
2019-01-31T22:23:32.077Z,45.00
2019-01-31T22:25:33.732Z,46.50
2019-01-31T22:27:35.377Z,46.30
2019-01-31T22:29:37.043Z,46.20
2019-01-31T22:31:38.694Z,48.20
2019-01-31T22:33:40.624Z,48.10
2019-01-31T22:35:42.897Z,48.50
2019-01-31T22:37:45.778Z,49.80
2019-01-31T22:39:47.453Z,50.50
2019-01-31T22:41:49.386Z,51.40
2019-01-31T22:43:51.194Z,51.70
2019-01-31T22:45:52.934Z,52.20
2019-01-31T22:47:54.593Z,52.90
2019-01-31T22:49:56.247Z,53.80
2019-01-31T22:51:57.905Z,54.40
2019-01-31T22:53:59.574Z,55.00
2019-01-31T22:56:01.237Z,55.30
2019-01-31T22:58:02.892Z,55.90
2019-01-31T23:00:13.773Z,54.80
2019-01-31T23:02:15.437Z,55.20
2019-01-31T23:04:17.223Z,55.00
2019-01-31T23:06:18.874Z,54.70
2019-01-31T23:08:20.561Z,54.90
2019-01-31T23:10:22.229Z,55.80
2019-01-31T23:12:23.888Z,54.60
2019-01-31T23:14:25.569Z,54.70
2019-01-31T23:16:27.213Z,55.20
2019-01-31T23:18:29.153Z,55.70
2019-01-31T23:20:31.143Z,55.50
2019-01-31T23:22:32.898Z,55.20
2019-01-31T23:24:34.561Z,54.70
2019-01-31T23:26:36.628Z,55.40
2019-01-31T23:28:38.374Z,55.70
2019-01-31T23:30:40.040Z,55.70
2019-01-31T23:32:41.941Z,55.90
2019-01-31T23:34:43.617Z,55.60
2019-01-31T23:36:45.285Z,55.40
2019-01-31T23:38:46.942Z,54.30
2019-01-31T23:40:48.606Z,54.10
2019-01-31T23:42:50.261Z,53.40
2019-01-31T23:44:52.261Z,53.50
2019-01-31T23:46:53.917Z,54.30
2019-01-31T23:48:55.582Z,54.00
2019-01-31T23:50:57.238Z,54.20
2019-01-31T23:52:58.889Z,53.00
2019-01-31T23:55:00.563Z,51.70
2019-01-31T23:57:02.217Z,52.70
2019-01-31T23:59:03.878Z,53.50
